Time;durP1;ratioP1;P1;durP2;ratioP2;P2;SDS_P1;SDS_P2;PMS_P1;PMS_P2;Temp;Humidity;BMP_temperature;BMP_pressure;BME280_temperature;BME280_humidity;BME280_pressure;Samples;Min_cycle;Max_cycle;Signal;HPM_P1;HPM_P2
2021/07/22 00:00:29;;;;;;;8.00;6.00;;;17.50;99.80;;;;;;6085709;23;20441;-85
2021/07/22 00:02:57;;;;;;;9.60;5.40;;;17.50;99.80;;;;;;6096944;23;20450;-85
2021/07/22 00:05:25;;;;;;;8.10;5.77;;;17.50;99.80;;;;;;6112330;23;20446;-85
2021/07/22 00:08:00;;;;;;;7.90;4.80;;;17.50;99.80;;;;;;6105064;23;20434;-85
2021/07/22 00:10:28;;;;;;;8.17;3.90;;;17.50;99.80;;;;;;6103928;23;20433;-85
2021/07/22 00:12:56;;;;;;;10.20;4.93;;;17.50;99.80;;;;;;6103697;23;20433;-85
2021/07/22 00:15:24;;;;;;;6.87;5.13;;;17.50;99.80;;;;;;6098895;23;20533;-85
2021/07/22 00:17:52;;;;;;;8.90;4.87;;;17.40;99.80;;;;;;6100934;23;20958;-85
2021/07/22 00:20:20;;;;;;;6.83;4.97;;;17.40;99.80;;;;;;6099183;23;20562;-83
2021/07/22 00:22:48;;;;;;;12.60;5.20;;;17.40;99.80;;;;;;6099919;23;20439;-82
2021/07/22 00:25:17;;;;;;;5.80;5.00;;;17.40;99.80;;;;;;6112878;23;20443;-83
2021/07/22 00:27:45;;;;;;;6.70;4.20;;;17.40;99.80;;;;;;6109074;23;20443;-82
2021/07/22 00:30:14;;;;;;;12.90;6.10;;;17.40;99.80;;;;;;6107068;23;20442;-82
2021/07/22 00:32:42;;;;;;;7.40;5.50;;;17.40;99.80;;;;;;6112769;23;20486;-85
2021/07/22 00:35:12;;;;;;;11.00;5.27;;;17.40;99.80;;;;;;6110851;23;20443;-85
2021/07/22 00:37:40;;;;;;;6.00;4.60;;;17.40;99.80;;;;;;6114499;23;20804;-84
2021/07/22 00:40:08;;;;;;;7.20;5.60;;;17.40;99.80;;;;;;6103301;23;20435;-85
2021/07/22 00:42:57;;;;;;;7.93;5.53;;;17.40;99.80;;;;;;6098053;23;20508;-84
2021/07/22 00:45:25;;;;;;;8.73;5.70;;;17.40;99.80;;;;;;6091864;23;20446;-85
2021/07/22 00:47:55;;;;;;;7.20;4.70;;;17.40;99.80;;;;;;6107301;23;20449;-85
2021/07/22 00:50:23;;;;;;;8.07;5.30;;;17.30;99.80;;;;;;6105926;23;20922;-84
2021/07/22 00:52:52;;;;;;;7.40;5.00;;;17.30;99.80;;;;;;6105416;23;21014;-85
2021/07/22 00:55:23;;;;;;;7.47;5.23;;;17.30;99.80;;;;;;6086238;23;21032;-87
2021/07/22 00:57:51;;;;;;;9.67;4.60;;;17.30;99.80;;;;;;6104765;23;20446;-86
2021/07/22 01:00:20;;;;;;;7.50;5.00;;;17.30;99.80;;;;;;6085606;23;20442;-86
2021/07/22 01:02:48;;;;;;;8.83;4.50;;;17.20;99.80;;;;;;6093838;23;20444;-86
2021/07/22 01:05:16;;;;;;;7.20;4.90;;;17.30;99.80;;;;;;6114349;23;20513;-85
2021/07/22 01:07:44;;;;;;;9.63;5.70;;;;;;;;;;6112825;23;20444;-83
2021/07/22 01:10:12;;;;;;;7.30;4.87;;;17.20;99.80;;;;;;6113162;23;20445;-85
2021/07/22 01:12:40;;;;;;;13.90;6.07;;;17.20;99.80;;;;;;6108720;23;21009;-84
2021/07/22 01:15:09;;;;;;;10.10;5.53;;;17.20;99.80;;;;;;6097370;23;20934;-84
2021/07/22 01:17:43;;;;;;;6.87;5.10;;;17.20;99.80;;;;;;6110834;23;21063;-84
2021/07/22 01:20:14;;;;;;;9.03;5.80;;;17.20;99.80;;;;;;6115416;23;20448;-84
2021/07/22 01:22:43;;;;;;;6.67;4.80;;;17.10;99.80;;;;;;6094404;23;20441;-87
2021/07/22 01:25:12;;;;;;;7.77;5.23;;;17.10;99.80;;;;;;6103900;23;20456;-87
2021/07/22 01:27:41;;;;;;;9.03;5.57;;;17.00;99.80;;;;;;6096651;23;21213;-87
2021/07/22 01:30:10;;;;;;;8.30;5.30;;;17.00;99.80;;;;;;6100479;23;20438;-87
2021/07/22 01:32:38;;;;;;;7.90;5.77;;;17.00;99.80;;;;;;6109339;23;20442;-85
2021/07/22 01:35:07;;;;;;;7.27;5.40;;;16.90;99.80;;;;;;6112049;23;20457;-84
2021/07/22 01:37:38;;;;;;;7.70;5.50;;;16.90;99.80;;;;;;6114482;23;20445;-85
2021/07/22 01:40:07;;;;;;;8.50;5.40;;;16.90;99.80;;;;;;6114315;23;20448;-85
2021/07/22 01:42:35;;;;;;;8.10;5.60;;;16.90;99.80;;;;;;6107055;23;20446;-85
2021/07/22 01:45:04;;;;;;;7.97;5.20;;;16.90;99.80;;;;;;6105857;23;20444;-86
2021/07/22 01:47:33;;;;;;;9.90;5.80;;;16.90;99.80;;;;;;6097922;23;20464;-86
2021/07/22 01:50:01;;;;;;;9.93;5.33;;;16.80;99.80;;;;;;6110804;23;20525;-85
2021/07/22 01:52:29;;;;;;;9.50;5.43;;;16.80;99.80;;;;;;6115484;23;20452;-86
2021/07/22 01:54:59;;;;;;;9.33;5.90;;;16.80;99.80;;;;;;6110981;23;20441;-86
2021/07/22 01:57:27;;;;;;;5.63;4.83;;;16.80;99.80;;;;;;6110150;23;20436;-86
2021/07/22 01:59:59;;;;;;;7.83;5.80;;;16.70;99.80;;;;;;6097690;23;20469;-86
2021/07/22 02:02:27;;;;;;;7.97;5.57;;;16.60;99.80;;;;;;6123421;23;20393;-86
2021/07/22 02:04:55;;;;;;;6.07;4.70;;;16.60;99.80;;;;;;6123950;23;20791;-86
2021/07/22 02:07:23;;;;;;;14.43;5.67;;;16.50;99.80;;;;;;6123937;23;20428;-86
2021/07/22 02:09:51;;;;;;;6.03;4.93;;;;;;;;;;6124437;23;20453;-86
2021/07/22 02:12:21;;;;;;;6.93;5.23;;;16.40;99.80;;;;;;6124016;23;20955;-86
2021/07/22 02:14:51;;;;;;;8.00;5.70;;;16.30;99.80;;;;;;6124390;23;21063;-86
2021/07/22 02:17:19;;;;;;;10.70;5.57;;;16.30;99.80;;;;;;6124043;23;20433;-86
2021/07/22 02:19:47;;;;;;;9.57;5.83;;;16.40;99.80;;;;;;6124324;23;20431;-86
2021/07/22 02:22:16;;;;;;;9.20;5.03;;;16.40;99.80;;;;;;6123639;23;20481;-86
2021/07/22 02:24:44;;;;;;;11.13;5.70;;;16.40;99.80;;;;;;6124277;23;20441;-86
2021/07/22 02:27:12;;;;;;;8.60;5.77;;;16.40;99.80;;;;;;6084671;23;20442;-85
2021/07/22 02:29:42;;;;;;;10.27;6.03;;;16.40;99.80;;;;;;6107626;23;20438;-85
2021/07/22 02:32:10;;;;;;;7.73;5.60;;;16.40;99.80;;;;;;6108257;23;20438;-85
2021/07/22 02:34:38;;;;;;;9.13;6.13;;;16.40;99.80;;;;;;6116270;23;20443;-85
2021/07/22 02:37:06;;;;;;;9.77;6.20;;;16.40;99.80;;;;;;6117048;23;20464;-86
2021/07/22 02:39:38;;;;;;;7.40;5.20;;;16.40;99.80;;;;;;6118419;23;20438;-85
2021/07/22 02:42:06;;;;;;;9.43;5.60;;;16.40;99.80;;;;;;6106018;23;20469;-86
2021/07/22 02:44:38;;;;;;;7.90;4.70;;;16.50;99.80;;;;;;6097815;23;20452;-85
2021/07/22 02:47:11;;;;;;;10.47;5.40;;;16.50;99.80;;;;;;6104387;23;20457;-85
2021/07/22 02:49:39;;;;;;;8.30;5.50;;;16.40;99.80;;;;;;6118771;23;20442;-85
2021/07/22 02:52:08;;;;;;;10.67;5.73;;;16.40;99.80;;;;;;6109454;23;20448;-85
2021/07/22 02:54:36;;;;;;;9.60;6.27;;;16.40;99.80;;;;;;6103167;23;20451;-85
2021/07/22 02:57:04;;;;;;;8.63;5.63;;;16.40;99.80;;;;;;6098961;23;20825;-85
2021/07/22 02:59:32;;;;;;;5.70;5.10;;;16.40;99.80;;;;;;6100416;23;21022;-85
2021/07/22 03:02:00;;;;;;;8.27;4.80;;;16.30;99.80;;;;;;6110767;23;20452;-85
2021/07/22 03:04:31;;;;;;;11.73;6.00;;;16.30;99.80;;;;;;6115351;23;20520;-85
2021/07/22 03:06:59;;;;;;;8.83;6.30;;;16.20;99.80;;;;;;6114317;23;20985;-85
2021/07/22 03:09:27;;;;;;;6.57;5.40;;;16.10;99.80;;;;;;6116849;23;20442;-85
2021/07/22 03:11:55;;;;;;;9.27;6.77;;;16.10;99.80;;;;;;6117790;23;20800;-85
2021/07/22 03:14:23;;;;;;;8.30;5.90;;;16.10;99.80;;;;;;6106513;23;20464;-85
2021/07/22 03:16:51;;;;;;;9.53;5.00;;;16.10;99.80;;;;;;6106170;23;20457;-85
2021/07/22 03:19:20;;;;;;;8.60;5.60;;;16.20;99.80;;;;;;6117964;23;20469;-86
2021/07/22 03:21:51;;;;;;;10.50;6.00;;;16.10;99.80;;;;;;6119461;23;20937;-85
2021/07/22 03:24:19;;;;;;;8.47;6.13;;;16.10;99.80;;;;;;6102325;23;20465;-85
2021/07/22 03:26:47;;;;;;;11.13;5.50;;;16.10;99.80;;;;;;6104006;23;20976;-85
2021/07/22 03:29:15;;;;;;;11.10;6.80;;;16.10;99.80;;;;;;6103528;23;20440;-85
2021/07/22 03:31:43;;;;;;;10.60;5.70;;;;;;;;;;6104462;23;20525;-85
2021/07/22 03:34:13;;;;;;;8.03;5.57;;;16.10;99.80;;;;;;6102197;23;20449;-85
2021/07/22 03:36:41;;;;;;;8.10;5.83;;;16.20;99.80;;;;;;6102930;23;20433;-85
2021/07/22 03:39:10;;;;;;;10.33;5.73;;;16.20;99.80;;;;;;6108867;23;21248;-85
2021/07/22 03:41:47;;;;;;;9.73;6.47;;;16.10;99.80;;;;;;6111845;23;20433;-85
2021/07/22 03:44:15;;;;;;;12.47;7.10;;;16.10;99.80;;;;;;6110307;23;20451;-85
2021/07/22 03:46:43;;;;;;;10.13;5.70;;;16.00;99.80;;;;;;6109449;23;20443;-86
2021/07/22 03:49:11;;;;;;;14.40;6.13;;;;;;;;;;6109786;23;20520;-85
2021/07/22 03:51:39;;;;;;;7.73;5.70;;;;;;;;;;6102644;23;20440;-85
2021/07/22 03:54:07;;;;;;;8.80;5.40;;;16.00;99.80;;;;;;6105256;23;20520;-85
2021/07/22 03:56:37;;;;;;;10.53;6.87;;;16.00;99.80;;;;;;6099766;23;20789;-85
2021/07/22 03:59:05;;;;;;;9.07;6.00;;;16.00;99.80;;;;;;6098005;23;20476;-85
2021/07/22 04:01:32;;;;;;;10.33;6.33;;;16.00;99.80;;;;;;6064247;23;20440;-85
2021/07/22 04:04:01;;;;;;;8.10;6.40;;;15.90;99.80;;;;;;6099221;23;20448;-85
2021/07/22 04:06:28;;;;;;;10.03;6.07;;;16.00;99.80;;;;;;6099414;23;20956;-84
2021/07/22 04:08:57;;;;;;;13.10;6.90;;;16.00;99.80;;;;;;6095340;23;20921;-84
2021/07/22 04:11:24;;;;;;;8.97;6.10;;;16.00;99.80;;;;;;6095131;23;20444;-85
2021/07/22 04:13:54;;;;;;;9.57;5.97;;;16.00;99.80;;;;;;6102969;23;20449;-84
2021/07/22 04:16:22;;;;;;;8.40;5.20;;;16.00;99.80;;;;;;6107052;23;20961;-84
2021/07/22 04:18:50;;;;;;;7.10;5.40;;;16.00;99.80;;;;;;6107611;23;20471;-84
2021/07/22 04:21:18;;;;;;;9.07;5.43;;;16.00;99.80;;;;;;6113889;23;20441;-84
2021/07/22 04:23:48;;;;;;;10.00;5.90;;;16.00;99.80;;;;;;6113326;23;20563;-84
2021/07/22 04:26:16;;;;;;;10.33;6.20;;;16.00;99.80;;;;;;6098272;23;20441;-84
2021/07/22 04:28:44;;;;;;;13.00;7.20;;;16.00;99.80;;;;;;6105591;23;20444;-84
2021/07/22 04:31:19;;;;;;;14.00;7.17;;;16.00;99.80;;;;;;6100096;23;20448;-84
2021/07/22 04:33:47;;;;;;;9.17;6.10;;;16.00;99.80;;;;;;6115522;23;20452;-85
2021/07/22 04:36:15;;;;;;;13.87;6.20;;;16.00;99.80;;;;;;6112624;23;20432;-85
2021/07/22 04:38:46;;;;;;;9.70;5.90;;;15.90;99.80;;;;;;6092528;23;20779;-83
2021/07/22 04:41:14;;;;;;;11.80;7.10;;;;;;;;;;6103401;23;21059;-83
2021/07/22 04:43:42;;;;;;;11.17;6.70;;;16.00;99.80;;;;;;6101996;23;20452;-84
2021/07/22 04:46:10;;;;;;;7.90;5.70;;;16.00;99.80;;;;;;6083263;23;21196;-84
2021/07/22 04:48:40;;;;;;;9.50;5.97;;;15.90;99.80;;;;;;6113053;23;21030;-84
2021/07/22 04:51:07;;;;;;;10.50;6.43;;;15.90;99.80;;;;;;6112739;23;20444;-85
2021/07/22 04:53:39;;;;;;;9.30;5.50;;;16.00;99.80;;;;;;6112057;23;20446;-86
2021/07/22 04:56:10;;;;;;;7.20;5.63;;;16.00;99.80;;;;;;6115092;23;20511;-85
2021/07/22 04:58:39;;;;;;;13.63;6.73;;;;;;;;;;6070723;23;20958;-84
2021/07/22 05:01:09;;;;;;;10.07;5.63;;;;;;;;;;6084339;23;20575;-84
2021/07/22 05:03:39;;;;;;;10.23;6.37;;;16.20;99.80;;;;;;6112661;23;20441;-84
2021/07/22 05:06:12;;;;;;;9.03;6.60;;;16.30;99.80;;;;;;6113191;23;20440;-85
2021/07/22 05:08:44;;;;;;;11.23;6.13;;;16.40;99.80;;;;;;6102138;23;20457;-85
2021/07/22 05:11:12;;;;;;;8.80;6.37;;;16.50;99.80;;;;;;6090633;23;20446;-85
2021/07/22 05:13:40;;;;;;;8.53;6.43;;;;;;;;;;6101433;23;20456;-84
2021/07/22 05:16:08;;;;;;;14.63;7.93;;;16.70;99.80;;;;;;6101239;23;20489;-84
2021/07/22 05:18:37;;;;;;;10.57;5.50;;;;;;;;;;6087922;23;20446;-84
2021/07/22 05:21:07;;;;;;;10.63;6.50;;;16.90;99.80;;;;;;6097956;23;20755;-84
2021/07/22 05:23:35;;;;;;;8.80;6.03;;;16.90;99.80;;;;;;6105881;23;20438;-86
2021/07/22 05:26:05;;;;;;;9.03;5.63;;;17.10;99.80;;;;;;6097222;23;21025;-84
2021/07/22 05:28:33;;;;;;;7.27;5.33;;;17.10;99.80;;;;;;6107266;23;20516;-84
2021/07/22 05:31:05;;;;;;;10.53;6.80;;;17.10;99.80;;;;;;6108571;23;20440;-84
2021/07/22 05:33:33;;;;;;;9.93;6.53;;;17.10;99.80;;;;;;6116847;23;20461;-84
2021/07/22 05:36:05;;;;;;;10.50;6.13;;;17.10;99.80;;;;;;6117931;23;20445;-85
2021/07/22 05:38:35;;;;;;;11.70;6.33;;;17.10;99.80;;;;;;6094955;23;20447;-84
2021/07/22 05:41:05;;;;;;;9.60;5.83;;;17.10;99.80;;;;;;6102745;23;20441;-84
2021/07/22 05:43:33;;;;;;;8.70;5.30;;;17.10;99.80;;;;;;6109186;23;20452;-84
2021/07/22 05:46:01;;;;;;;8.70;6.50;;;17.10;99.80;;;;;;6106075;23;20452;-85
2021/07/22 05:48:29;;;;;;;9.77;5.77;;;17.20;99.80;;;;;;6111043;23;20445;-83
2021/07/22 05:51:01;;;;;;;9.90;6.37;;;17.20;99.80;;;;;;6109012;23;20445;-85
2021/07/22 05:53:29;;;;;;;9.20;6.73;;;17.20;99.80;;;;;;6111150;23;20464;-84
2021/07/22 05:56:00;;;;;;;8.63;5.77;;;17.20;99.80;;;;;;6110860;23;20775;-84
2021/07/22 05:58:28;;;;;;;9.40;5.73;;;17.30;99.80;;;;;;6091516;23;20501;-85
2021/07/22 06:01:00;;;;;;;11.37;5.83;;;17.30;99.80;;;;;;6088727;23;20446;-85
2021/07/22 06:03:28;;;;;;;10.07;6.07;;;17.30;99.80;;;;;;6113678;23;20445;-84
2021/07/22 06:05:56;;;;;;;8.83;5.67;;;17.40;99.80;;;;;;6113026;23;20500;-84
2021/07/22 06:08:24;;;;;;;10.17;5.77;;;17.40;99.80;;;;;;6117591;23;20449;-85
2021/07/22 06:10:52;;;;;;;9.13;6.43;;;17.50;99.80;;;;;;6111978;23;20766;-85
2021/07/22 06:13:21;;;;;;;7.77;5.87;;;17.50;99.80;;;;;;6110130;23;20453;-84
2021/07/22 06:15:49;;;;;;;12.60;5.73;;;17.60;99.80;;;;;;6109274;23;20503;-84
2021/07/22 06:18:18;;;;;;;8.23;5.77;;;17.60;99.80;;;;;;6102195;23;20531;-88
2021/07/22 06:20:50;;;;;;;9.80;6.40;;;17.70;99.80;;;;;;6111684;23;20473;-88
2021/07/22 06:23:20;;;;;;;7.67;5.90;;;17.70;99.80;;;;;;6098423;23;20431;-89
2021/07/22 06:25:48;;;;;;;6.80;5.10;;;17.80;99.80;;;;;;6102738;23;20450;-89
2021/07/22 06:28:17;;;;;;;8.50;6.20;;;17.80;99.80;;;;;;6103802;23;20442;-89
2021/07/22 06:30:46;;;;;;;9.43;6.03;;;17.90;99.80;;;;;;6110218;23;20974;-88
2021/07/22 06:33:14;;;;;;;8.47;5.50;;;17.90;99.80;;;;;;6111971;23;20450;-90
2021/07/22 06:35:42;;;;;;;9.17;5.60;;;17.90;99.80;;;;;;6117917;23;21016;-89
2021/07/22 06:38:10;;;;;;;8.27;5.30;;;18.00;99.80;;;;;;6120353;23;20537;-88
2021/07/22 06:40:38;;;;;;;10.50;5.40;;;18.00;99.80;;;;;;6119782;23;20445;-88
2021/07/22 06:43:07;;;;;;;10.23;5.70;;;18.10;99.80;;;;;;6107496;23;20445;-87
2021/07/22 06:45:35;;;;;;;6.50;5.50;;;18.20;99.80;;;;;;6097256;23;20517;-88
2021/07/22 06:48:06;;;;;;;6.20;5.07;;;18.30;99.80;;;;;;6111339;23;20437;-88
2021/07/22 06:50:34;;;;;;;8.03;5.70;;;18.40;99.80;;;;;;6116716;23;20442;-88
2021/07/22 06:53:03;;;;;;;7.87;4.70;;;18.40;99.80;;;;;;6105737;23;20441;-87
2021/07/22 06:55:31;;;;;;;8.03;5.57;;;18.50;99.80;;;;;;6112173;23;20538;-88
2021/07/22 06:58:04;;;;;;;7.20;4.93;;;18.60;99.80;;;;;;6102830;23;20449;-88
2021/07/22 07:00:32;;;;;;;10.00;4.90;;;18.70;99.80;;;;;;6078356;23;20990;-87
2021/07/22 07:03:06;;;;;;;8.10;5.03;;;18.90;99.80;;;;;;6121331;23;20438;-88
2021/07/22 07:05:35;;;;;;;10.40;5.33;;;19.00;99.80;;;;;;6114093;23;20435;-87
2021/07/22 07:08:04;;;;;;;10.53;4.87;;;19.10;99.80;;;;;;6117875;23;20442;-88
2021/07/22 07:10:32;;;;;;;6.20;4.93;;;19.20;99.80;;;;;;6117737;23;20438;-87
2021/07/22 07:13:02;;;;;;;7.67;5.70;;;19.30;99.80;;;;;;6111807;23;20449;-87
2021/07/22 07:15:30;;;;;;;7.37;4.90;;;19.40;99.80;;;;;;6091005;23;20446;-87
2021/07/22 07:18:05;;;;;;;6.30;4.40;;;19.60;99.80;;;;;;6104344;23;21260;-87
2021/07/22 07:20:36;;;;;;;7.30;5.37;;;19.70;99.80;;;;;;6116426;23;20438;-87
2021/07/22 07:23:04;;;;;;;13.30;5.30;;;19.80;99.80;;;;;;6101947;23;20439;-86
2021/07/22 07:25:33;;;;;;;6.43;5.37;;;19.90;99.80;;;;;;6082963;23;20486;-88
2021/07/22 07:28:01;;;;;;;7.73;5.00;;;20.00;99.80;;;;;;6109710;23;20790;-87
2021/07/22 07:30:30;;;;;;;8.53;5.10;;;20.10;99.80;;;;;;6099125;23;20447;-88
2021/07/22 07:33:01;;;;;;;8.30;5.70;;;20.10;99.80;;;;;;6104743;23;20446;-86
2021/07/22 07:35:29;;;;;;;6.63;5.03;;;20.20;99.80;;;;;;6106751;23;20493;-87
2021/07/22 07:37:58;;;;;;;5.47;4.57;;;20.20;99.80;;;;;;6094824;23;20442;-87
2021/07/22 07:40:26;;;;;;;10.40;5.30;;;20.30;99.80;;;;;;6073385;23;20447;-88
2021/07/22 07:42:54;;;;;;;6.10;4.50;;;20.40;99.40;;;;;;6093613;23;20462;-87
2021/07/22 07:45:22;;;;;;;8.20;4.80;;;20.50;98.30;;;;;;6090521;23;20441;-88
2021/07/22 07:47:50;;;;;;;10.53;5.70;;;20.50;98.00;;;;;;6091594;23;20456;-87
2021/07/22 07:50:18;;;;;;;5.23;4.63;;;20.70;97.80;;;;;;6127156;23;20441;-88
2021/07/22 07:52:46;;;;;;;5.53;4.87;;;20.80;97.50;;;;;;6116944;23;20440;-88
2021/07/22 07:55:16;;;;;;;10.00;5.50;;;20.80;97.00;;;;;;6105835;23;20445;-88
2021/07/22 07:57:44;;;;;;;8.40;5.60;;;21.00;97.30;;;;;;6095027;23;20494;-87
2021/07/22 08:00:13;;;;;;;8.50;5.70;;;21.00;96.60;;;;;;6078535;23;20434;-88
2021/07/22 08:02:41;;;;;;;10.20;5.27;;;21.00;96.80;;;;;;6109260;23;20431;-88
2021/07/22 08:05:11;;;;;;;7.00;4.93;;;21.10;97.50;;;;;;6107701;23;22735;-88
2021/07/22 08:07:39;;;;;;;7.63;5.13;;;21.20;97.90;;;;;;6082420;23;20450;-87
2021/07/22 08:10:09;;;;;;;9.13;5.13;;;21.30;97.70;;;;;;6095799;23;20440;-87
2021/07/22 08:12:41;;;;;;;6.97;4.87;;;21.30;96.40;;;;;;6096397;23;20468;-86
2021/07/22 08:15:11;;;;;;;5.43;4.60;;;21.40;96.70;;;;;;6087826;23;21077;-87
2021/07/22 08:17:39;;;;;;;18.00;5.70;;;;;;;;;;6106016;23;20467;-89
2021/07/22 08:20:09;;;;;;;6.20;5.00;;;21.80;96.40;;;;;;6113801;23;20435;-88
2021/07/22 08:22:38;;;;;;;6.10;4.77;;;21.90;96.40;;;;;;6118419;23;20764;-87
2021/07/22 08:25:09;;;;;;;7.40;4.73;;;21.90;96.40;;;;;;6119711;23;21877;-86
2021/07/22 08:27:37;;;;;;;8.50;4.80;;;22.20;96.50;;;;;;6089252;23;20521;-87
2021/07/22 08:30:08;;;;;;;5.07;4.50;;;22.40;96.10;;;;;;6089590;23;20443;-87
2021/07/22 08:32:36;;;;;;;8.07;4.97;;;22.40;96.10;;;;;;6109599;23;20498;-88
2021/07/22 08:35:04;;;;;;;9.30;4.83;;;22.50;95.10;;;;;;6118692;23;20500;-87
2021/07/22 08:37:33;;;;;;;6.17;5.17;;;22.60;93.20;;;;;;6098605;23;20752;-87
2021/07/22 08:40:03;;;;;;;5.80;5.20;;;;;;;;;;6082821;23;20543;-87
2021/07/22 08:42:35;;;;;;;5.17;4.67;;;22.80;92.50;;;;;;6096812;23;20442;-86
2021/07/22 08:45:04;;;;;;;6.37;4.93;;;22.90;91.70;;;;;;6079245;23;20443;-87
2021/07/22 08:47:35;;;;;;;7.53;4.83;;;23.00;90.90;;;;;;6088327;23;20460;-87
2021/07/22 08:50:04;;;;;;;7.53;4.90;;;23.20;91.60;;;;;;6113643;23;20438;-86
2021/07/22 08:52:32;;;;;;;7.50;4.40;;;23.10;91.60;;;;;;6116897;23;20438;-87
2021/07/22 08:55:00;;;;;;;7.43;4.73;;;23.30;90.80;;;;;;6112005;23;20451;-87
2021/07/22 08:57:31;;;;;;;5.63;5.10;;;23.50;90.00;;;;;;6112072;23;20442;-86
2021/07/22 09:00:00;;;;;;;5.77;4.90;;;23.60;87.60;;;;;;6091599;23;20450;-86
2021/07/22 09:02:30;;;;;;;5.50;4.27;;;23.70;88.30;;;;;;6061536;23;20435;-86
2021/07/22 09:05:01;;;;;;;7.27;5.43;;;23.80;88.60;;;;;;6116928;23;20497;-88
2021/07/22 09:07:30;;;;;;;5.80;5.00;;;23.90;84.00;;;;;;6092167;23;20453;-86
2021/07/22 09:10:13;;;;;;;6.87;5.13;;;24.00;86.20;;;;;;6088973;23;21391;-88
2021/07/22 09:12:43;;;;;;;6.33;5.33;;;24.00;86.10;;;;;;6073433;23;20514;-87
2021/07/22 09:15:12;;;;;;;4.77;4.37;;;24.10;84.30;;;;;;6091805;23;20899;-88
2021/07/22 09:18:01;;;;;;;10.43;5.33;;;24.20;85.50;;;;;;6073086;23;20848;-86
2021/07/22 09:20:32;;;;;;;9.80;6.70;;;24.50;83.40;;;;;;6090490;23;20435;-87
2021/07/22 09:23:01;;;;;;;6.10;5.13;;;24.50;83.40;;;;;;6094341;23;20437;-86
2021/07/22 09:25:41;;;;;;;6.43;4.93;;;24.60;81.40;;;;;;6089821;23;20514;-86
2021/07/22 09:28:10;;;;;;;7.93;5.97;;;24.70;78.90;;;;;;6083137;23;20430;-89
2021/07/22 09:30:40;;;;;;;7.00;5.40;;;24.40;80.50;;;;;;6075757;23;20434;-87
2021/07/22 09:33:08;;;;;;;9.03;5.07;;;;;;;;;;6109008;23;20452;-86
2021/07/22 09:35:38;;;;;;;7.63;5.43;;;24.40;82.20;;;;;;6123017;23;20789;-87
2021/07/22 09:38:11;;;;;;;8.63;5.47;;;24.60;81.00;;;;;;6113837;23;20442;-87
2021/07/22 09:40:39;;;;;;;7.03;5.13;;;24.70;78.50;;;;;;6096194;23;20529;-92
2021/07/22 09:43:08;;;;;;;7.50;5.57;;;24.90;77.50;;;;;;6079527;23;20454;-87
2021/07/22 09:45:38;;;;;;;10.80;5.33;;;24.90;77.90;;;;;;6090071;23;20443;-86
2021/07/22 09:48:07;;;;;;;6.43;5.07;;;25.00;77.80;;;;;;6111152;23;20442;-87
2021/07/22 09:50:42;;;;;;;8.37;5.03;;;25.10;78.00;;;;;;6086270;23;20450;-87
2021/07/22 09:53:12;;;;;;;9.20;6.10;;;25.10;77.40;;;;;;6093236;23;20438;-87
2021/07/22 09:55:41;;;;;;;7.57;5.30;;;25.10;77.40;;;;;;6079722;23;20514;-86
2021/07/22 09:58:11;;;;;;;11.57;5.90;;;25.40;76.40;;;;;;6093886;23;20445;-85
2021/07/22 10:00:41;;;;;;;8.70;5.23;;;25.40;76.50;;;;;;6088785;23;20875;-86
2021/07/22 10:03:14;;;;;;;5.87;5.13;;;25.70;74.40;;;;;;6116120;23;20878;-86
2021/07/22 10:05:47;;;;;;;8.60;5.43;;;25.70;74.40;;;;;;6113957;23;20499;-88
2021/07/22 10:08:19;;;;;;;7.17;5.40;;;25.90;75.70;;;;;;6114283;23;20447;-86
2021/07/22 10:10:51;;;;;;;6.10;4.93;;;25.90;75.70;;;;;;6101597;23;20439;-86
2021/07/22 10:13:27;;;;;;;5.87;4.67;;;26.00;76.00;;;;;;6089115;23;20509;-86
2021/07/22 10:15:57;;;;;;;10.37;5.67;;;26.00;77.60;;;;;;6084517;23;20442;-87
2021/07/22 10:18:29;;;;;;;6.60;5.00;;;26.10;77.00;;;;;;6104268;23;20472;-86
2021/07/22 10:20:59;;;;;;;11.53;5.47;;;26.10;76.90;;;;;;6105227;23;20445;-86
2021/07/22 10:23:28;;;;;;;5.30;4.67;;;26.40;75.60;;;;;;6091258;23;20467;-85
2021/07/22 10:25:57;;;;;;;6.40;5.30;;;26.30;75.60;;;;;;6094031;23;20509;-88
2021/07/22 10:28:27;;;;;;;7.60;5.07;;;26.50;74.60;;;;;;6076067;23;20442;-86
2021/07/22 10:30:57;;;;;;;7.00;5.27;;;26.60;72.20;;;;;;6089184;23;20442;-86
2021/07/22 10:33:26;;;;;;;8.23;6.07;;;26.60;72.30;;;;;;6114289;23;20461;-88
2021/07/22 10:35:55;;;;;;;6.87;4.90;;;26.70;73.50;;;;;;6117819;23;20456;-86
2021/07/22 10:38:41;;;;;;;5.43;4.93;;;26.60;71.80;;;;;;6118040;23;20445;-88
2021/07/22 10:41:09;;;;;;;6.93;5.17;;;26.70;73.80;;;;;;6119596;23;20443;-87
2021/07/22 10:43:44;;;;;;;6.90;5.40;;;26.70;73.80;;;;;;6090440;23;20501;-87
2021/07/22 10:46:13;;;;;;;6.90;5.37;;;26.60;71.20;;;;;;6078143;23;20441;-87
2021/07/22 10:48:42;;;;;;;9.30;5.57;;;26.60;72.80;;;;;;6119034;23;20990;-88
2021/07/22 10:51:12;;;;;;;7.20;5.63;;;26.60;72.80;;;;;;6122775;23;20771;-86
2021/07/22 10:53:49;;;;;;;6.70;5.70;;;26.80;71.10;;;;;;6080145;23;20494;-87
2021/07/22 10:56:46;;;;;;;6.20;4.37;;;26.90;70.60;;;;;;6091037;23;20518;-87
2021/07/22 10:59:15;;;;;;;6.37;5.40;;;27.00;70.70;;;;;;6094670;23;20475;-86
2021/07/22 11:01:52;;;;;;;8.67;5.90;;;27.10;71.10;;;;;;6095098;23;20444;-88
2021/07/22 11:04:45;;;;;;;9.10;6.10;;;27.30;72.00;;;;;;6091914;23;21006;-87
2021/07/22 11:07:23;;;;;;;6.60;5.20;;;27.50;70.20;;;;;;6063389;23;20526;-86
2021/07/22 11:10:36;;;;;;;9.47;5.40;;;27.60;68.60;;;;;;6093009;23;20441;-87
2021/07/22 11:13:05;;;;;;;7.77;5.43;;;27.60;69.20;;;;;;6086846;23;20454;-87
2021/07/22 11:15:58;;;;;;;10.03;5.73;;;27.70;67.90;;;;;;6078584;23;20447;-87
2021/07/22 11:18:49;;;;;;;5.83;5.20;;;27.90;70.90;;;;;;6104872;23;20509;-87
2021/07/22 11:21:18;;;;;;;9.73;6.23;;;28.00;69.00;;;;;;6119181;23;20932;-87
2021/07/22 11:24:16;;;;;;;7.27;6.10;;;28.10;72.00;;;;;;6119809;23;20446;-87
2021/07/22 11:26:50;;;;;;;8.90;5.50;;;28.40;71.80;;;;;;6093755;23;21145;-88
2021/07/22 11:29:19;;;;;;;8.33;5.50;;;28.80;69.50;;;;;;6080482;23;20443;-86
2021/07/22 11:31:48;;;;;;;7.90;5.27;;;28.40;70.30;;;;;;6095952;23;20978;-87
2021/07/22 11:34:17;;;;;;;6.07;5.13;;;27.80;69.50;;;;;;6120916;23;20438;-87
2021/07/22 11:36:45;;;;;;;9.57;5.50;;;27.20;72.70;;;;;;6078019;23;20437;-86
2021/07/22 11:39:13;;;;;;;7.73;5.20;;;27.30;72.00;;;;;;6090286;23;20446;-88
2021/07/22 11:41:42;;;;;;;5.63;5.03;;;;;;;;;;6094136;23;20435;-87
2021/07/22 11:44:11;;;;;;;10.00;4.97;;;28.10;70.60;;;;;;6092639;23;20447;-88
2021/07/22 11:46:41;;;;;;;7.17;5.77;;;28.50;71.20;;;;;;6091713;23;20717;-88
2021/07/22 11:49:11;;;;;;;9.47;5.43;;;29.20;68.20;;;;;;6129105;23;20470;-88
2021/07/22 11:51:40;;;;;;;8.90;5.13;;;29.20;68.20;;;;;;6122919;23;20465;-86
2021/07/22 11:54:08;;;;;;;7.87;5.00;;;29.40;68.20;;;;;;6123502;23;20522;-86
2021/07/22 11:56:37;;;;;;;6.10;5.17;;;29.50;66.70;;;;;;6091024;23;20529;-87
2021/07/22 11:59:09;;;;;;;6.37;4.83;;;29.50;67.10;;;;;;6091848;23;20449;-87
2021/07/22 12:01:49;;;;;;;6.83;4.77;;;29.60;67.50;;;;;;6089310;23;20986;-87
2021/07/22 12:04:28;;;;;;;5.80;5.20;;;29.70;66.80;;;;;;6129690;23;20450;-89
2021/07/22 12:06:57;;;;;;;6.70;5.10;;;29.90;66.60;;;;;;6095227;23;20445;-89
2021/07/22 12:09:26;;;;;;;6.47;5.17;;;30.10;68.40;;;;;;6095283;23;20474;-87
2021/07/22 12:11:56;;;;;;;8.03;5.80;;;30.40;66.30;;;;;;6092204;23;20529;-86
2021/07/22 12:14:25;;;;;;;5.53;5.00;;;30.90;67.00;;;;;;6089914;23;20946;-87
2021/07/22 12:16:57;;;;;;;7.47;4.77;;;33.90;58.30;;;;;;6089930;23;20509;-86
2021/07/22 12:19:26;;;;;;;5.97;5.17;;;33.90;58.30;;;;;;6118949;23;20443;-87
2021/07/22 12:22:21;;;;;;;8.17;4.30;;;35.20;55.00;;;;;;6122549;23;20445;-87
2021/07/22 12:24:50;;;;;;;5.87;4.90;;;37.00;54.50;;;;;;6117559;23;20518;-87
2021/07/22 12:27:33;;;;;;;8.93;4.70;;;37.60;53.60;;;;;;6107614;23;20513;-88
2021/07/22 12:30:04;;;;;;;5.50;4.17;;;36.80;53.30;;;;;;6086588;23;20813;-88
2021/07/22 12:32:34;;;;;;;8.80;5.27;;;36.80;53.20;;;;;;6103701;23;20495;-87
2021/07/22 12:35:03;;;;;;;5.70;5.13;;;33.30;60.70;;;;;;6121218;23;20438;-87
2021/07/22 12:37:54;;;;;;;8.60;5.20;;;33.40;60.70;;;;;;6101052;23;20817;-88
2021/07/22 12:40:35;;;;;;;5.90;5.30;;;32.70;58.70;;;;;;6106582;23;20498;-87
2021/07/22 12:43:05;;;;;;;5.00;4.50;;;34.30;58.10;;;;;;6109412;23;20942;-87
2021/07/22 12:45:34;;;;;;;5.40;4.57;;;35.90;54.40;;;;;;6095509;23;20753;-87
2021/07/22 12:48:04;;;;;;;5.40;4.90;;;36.10;54.70;;;;;;6088743;23;20438;-88
2021/07/22 12:50:32;;;;;;;5.60;5.00;;;35.50;53.50;;;;;;6105059;23;20439;-88
2021/07/22 12:53:04;;;;;;;8.40;5.57;;;34.70;58.00;;;;;;6103877;23;20902;-88
2021/07/22 12:55:34;;;;;;;5.90;5.00;;;34.70;58.00;;;;;;6088473;23;21235;-88
2021/07/22 12:58:03;;;;;;;5.67;4.53;;;34.40;55.80;;;;;;6106742;23;20534;-88
2021/07/22 13:00:31;;;;;;;4.47;4.07;;;;;;;;;;6074730;23;20439;-88
2021/07/22 13:03:00;;;;;;;5.70;5.00;;;35.80;53.10;;;;;;6116380;23;20441;-88
2021/07/22 13:05:30;;;;;;;6.40;4.57;;;35.80;53.10;;;;;;6121922;23;21031;-89